Terminal Aerodrome Forecast
Issued by NWS Sioux Falls, SD

Home | Current Version | Previous Version | Graphics & Text | Print | Product List | Glossary Off
Versions: 1 2 3 4 5 6 7 8 9 10 11 12 13 14 15 16 17 18 19 20

000
FTUS43 KFSD 282139 AAA
TAFFSD
TAF AMD
KFSD 282139Z 2822/2918 06012KT P6SM BKN030
     FM282300 03005KT P6SM SCT035
     FM290100 VRB03KT P6SM SKC
      TEMPO 2910/2914 1SM BR SCT005=

USA.gov is the U.S. government's official web portal to all federal, state and local government web resources and services.